createdAt,value
2022-11-21T00:01:18.262Z,99318.66
2022-11-21T00:03:45.907Z,99314.25
2022-11-21T00:06:13.341Z,99302.72
2022-11-21T00:08:40.869Z,99304.22
2022-11-21T00:11:08.507Z,99289.84
2022-11-21T00:13:35.906Z,99291.41
2022-11-21T00:16:05.146Z,99281.88
2022-11-21T00:18:34.547Z,99282.75
2022-11-21T00:21:11.565Z,99281.03
2022-11-21T00:23:39.145Z,99278.59
2022-11-21T00:26:07.414Z,99270.91
2022-11-21T00:28:35.035Z,99264.28
2022-11-21T00:31:03.558Z,99263.53
2022-11-21T00:33:31.666Z,99260.91
2022-11-21T00:35:59.013Z,99253.19
2022-11-21T00:38:27.492Z,99254.09
2022-11-21T00:40:54.839Z,99255.78
2022-11-21T00:43:22.225Z,99246.22
2022-11-21T00:45:49.786Z,99246.19
2022-11-21T00:48:17.118Z,99240.06
2022-11-21T00:50:44.394Z,99239.34
2022-11-21T00:53:11.983Z,99248.69
2022-11-21T00:55:39.335Z,99254.81
2022-11-21T00:58:06.692Z,99262.37
2022-11-21T01:00:34.359Z,99264.81
2022-11-21T01:03:01.675Z,99262.81
2022-11-21T01:05:29.001Z,99263.75
2022-11-21T01:07:56.613Z,99250.25
2022-11-21T01:10:24.150Z,99253.87
2022-11-21T01:12:51.430Z,99244.38
2022-11-21T01:15:18.990Z,99239.28
2022-11-21T01:17:46.358Z,99239.25
2022-11-21T01:20:14.536Z,99224.72
2022-11-21T01:22:42.140Z,99225.47
2022-11-21T01:25:09.602Z,99227.06
2022-11-21T01:27:36.876Z,99228.75
2022-11-21T01:30:04.952Z,99235.44
2022-11-21T01:32:32.334Z,99222.63
2022-11-21T01:34:59.743Z,99231.28
2022-11-21T01:37:27.415Z,99239.78
2022-11-21T01:39:55.172Z,99227.75
2022-11-21T01:42:22.561Z,99228.66
2022-11-21T01:44:53.411Z,99229.41
2022-11-21T01:47:22.726Z,99238.81
2022-11-21T01:49:52.483Z,99239.72
2022-11-21T01:52:25.432Z,99229.47
2022-11-21T01:55:03.133Z,99234.31
2022-11-21T01:57:57.133Z,99233.56
2022-11-21T02:00:27.006Z,99225.97
2022-11-21T02:02:58.308Z,99224.25
2022-11-21T02:05:28.577Z,99222.31
2022-11-21T02:07:58.951Z,99220.59
2022-11-21T02:10:27.112Z,99223.25
2022-11-21T02:12:56.911Z,99224.25
2022-11-21T02:15:27.070Z,99221.44
2022-11-21T02:17:54.801Z,99213.75
2022-11-21T02:20:25.045Z,99219.78
2022-11-21T02:23:11.093Z,99216.28
2022-11-21T02:25:41.456Z,99227.41
2022-11-21T02:28:15.260Z,99218.84
2022-11-21T02:30:43.587Z,99226.69
2022-11-21T02:33:11.519Z,99219.59
2022-11-21T02:35:39.099Z,99220.44
2022-11-21T02:38:10.116Z,99209.31
2022-11-21T02:40:43.945Z,99212.06
2022-11-21T02:43:21.926Z,99206.88
2022-11-21T02:45:49.359Z,99206.63
2022-11-21T02:48:16.912Z,99213.59
2022-11-21T02:50:46.094Z,99212.91
2022-11-21T02:53:15.734Z,99211.16
2022-11-21T02:55:43.924Z,99223.19
2022-11-21T02:58:11.843Z,99211.25
2022-11-21T03:00:40.505Z,99212.53
2022-11-21T03:03:08.691Z,99218.69
2022-11-21T03:05:36.112Z,99216.09
2022-11-21T03:08:03.773Z,99216.97
2022-11-21T03:10:31.400Z,99212.72
2022-11-21T03:13:01.806Z,99215.84
2022-11-21T03:15:32.025Z,99206.69
2022-11-21T03:18:03.462Z,99215.03
2022-11-21T03:20:32.481Z,99206.59
2022-11-21T03:23:00.105Z,99214.13
2022-11-21T03:25:28.067Z,99203.25
2022-11-21T03:27:55.550Z,99208.28
2022-11-21T03:30:24.707Z,99204.78
2022-11-21T03:32:55.366Z,99201.47
2022-11-21T03:35:23.162Z,99198.50
2022-11-21T03:37:50.583Z,99190.31
2022-11-21T03:40:17.992Z,99190.31
2022-11-21T03:42:45.537Z,99189.53
2022-11-21T03:45:12.866Z,99186.78
2022-11-21T03:47:40.192Z,99188.34
2022-11-21T03:50:08.083Z,99180.69
2022-11-21T03:52:35.379Z,99191.03
2022-11-21T03:55:02.962Z,99183.31
2022-11-21T03:57:30.579Z,99180.91
2022-11-21T03:59:57.926Z,99182.44
2022-11-21T04:02:25.210Z,99183.13
2022-11-21T04:04:52.815Z,99178.41
2022-11-21T04:07:20.251Z,99181.88
2022-11-21T04:09:47.651Z,99175.72
2022-11-21T04:12:15.260Z,99168.94
2022-11-21T04:14:42.539Z,99166.25
2022-11-21T04:17:10.051Z,99168.13
2022-11-21T04:19:37.730Z,99161.22
2022-11-21T04:22:05.289Z,99154.31
2022-11-21T04:24:32.633Z,99150.00
2022-11-21T04:27:00.176Z,99150.84
2022-11-21T04:29:27.544Z,99146.53
2022-11-21T04:31:54.886Z,99149.16
2022-11-21T04:34:22.551Z,99143.00
2022-11-21T04:36:49.922Z,99140.37
2022-11-21T04:39:17.293Z,99132.66
2022-11-21T04:41:44.899Z,99126.75
2022-11-21T04:44:12.257Z,99125.00
2022-11-21T04:46:39.585Z,99125.81
2022-11-21T04:49:07.189Z,99125.94
2022-11-21T04:51:34.544Z,99122.31
2022-11-21T04:54:01.902Z,99116.31
2022-11-21T04:56:29.542Z,99121.47
2022-11-21T04:58:56.858Z,99124.00
2022-11-21T05:01:24.226Z,99132.44
2022-11-21T05:03:52.779Z,99134.22
2022-11-21T05:06:20.141Z,99135.00
2022-11-21T05:08:52.111Z,99140.97
2022-11-21T05:11:39.982Z,99141.13
2022-11-21T05:14:07.308Z,99136.00
2022-11-21T05:16:35.203Z,99132.66
2022-11-21T05:19:02.492Z,99131.09
2022-11-21T05:21:30.093Z,99125.22
2022-11-21T05:23:57.649Z,99127.03
2022-11-21T05:26:24.969Z,99124.59
2022-11-21T05:28:52.251Z,99126.09
2022-11-21T05:31:19.874Z,99123.47
2022-11-21T05:33:47.194Z,99127.25
2022-11-21T05:36:14.464Z,99125.06
2022-11-21T05:38:42.084Z,99126.81
2022-11-21T05:41:09.849Z,99115.91
2022-11-21T05:43:45.721Z,99116.84
2022-11-21T05:46:14.701Z,99111.03
2022-11-21T05:48:42.264Z,99104.19
2022-11-21T05:51:09.874Z,99109.28
2022-11-21T05:53:37.653Z,99114.28
2022-11-21T05:56:10.782Z,99121.91
2022-11-21T05:58:39.095Z,99136.47
2022-11-21T06:01:07.193Z,99134.06
2022-11-21T06:03:37.260Z,99140.09
2022-11-21T06:06:16.966Z,99136.59
2022-11-21T06:08:47.541Z,99133.84
2022-11-21T06:11:16.588Z,99124.41
2022-11-21T06:13:44.521Z,99134.66
2022-11-21T06:16:14.717Z,99121.94
2022-11-21T06:18:44.214Z,99127.94
2022-11-21T06:21:15.825Z,99121.84
2022-11-21T06:23:43.593Z,99137.81
2022-11-21T06:26:16.162Z,99133.78
2022-11-21T06:28:44.777Z,99131.19
2022-11-21T06:31:16.930Z,99132.41
2022-11-21T06:33:44.560Z,99136.06
2022-11-21T06:36:16.888Z,99140.91
2022-11-21T06:38:44.478Z,99142.78
2022-11-21T06:41:19.493Z,99147.47
2022-11-21T06:43:47.041Z,99152.25
2022-11-21T06:46:15.182Z,99158.19
2022-11-21T06:48:43.132Z,99157.16
2022-11-21T06:51:17.317Z,99162.78
2022-11-21T06:53:45.417Z,99162.75
2022-11-21T06:56:12.745Z,99166.19
2022-11-21T06:58:40.073Z,99173.84
2022-11-21T07:01:09.506Z,99175.66
2022-11-21T07:03:37.377Z,99183.44
2022-11-21T07:06:05.053Z,99181.94
2022-11-21T07:08:36.001Z,99177.06
2022-11-21T07:13:53.160Z,99181.56
2022-11-21T07:16:20.492Z,99180.28
2022-11-21T07:18:47.847Z,99179.50
2022-11-21T07:21:15.425Z,99178.84
2022-11-21T07:23:42.760Z,99188.28
2022-11-21T07:26:10.459Z,99179.69
2022-11-21T07:28:38.326Z,99180.63
2022-11-21T07:31:11.686Z,99173.56
2022-11-21T07:33:43.093Z,99180.59
2022-11-21T07:36:11.568Z,99180.31
2022-11-21T07:38:38.977Z,99179.50
2022-11-21T07:41:06.546Z,99177.94
2022-11-21T07:43:33.818Z,99168.25
2022-11-21T07:46:01.160Z,99169.81
2022-11-21T07:48:28.735Z,99171.63
2022-11-21T07:50:56.039Z,99163.28
2022-11-21T07:53:24.201Z,99169.31
2022-11-21T07:55:51.762Z,99173.56
2022-11-21T07:58:19.058Z,99179.72
2022-11-21T08:00:46.394Z,99181.09
2022-11-21T08:03:14.006Z,99180.69
2022-11-21T08:05:43.259Z,99189.38
2022-11-21T08:08:14.078Z,99191.09
2022-11-21T08:10:43.623Z,99198.03
2022-11-21T08:13:11.737Z,99201.97
2022-11-21T08:15:39.284Z,99201.56
2022-11-21T08:18:10.817Z,99209.34
2022-11-21T08:20:38.574Z,99205.31
2022-11-21T08:23:06.564Z,99215.50
2022-11-21T08:25:34.683Z,99216.22
2022-11-21T08:28:02.921Z,99216.13
2022-11-21T08:30:30.837Z,99212.94
2022-11-21T08:32:59.207Z,99220.81
2022-11-21T08:35:26.980Z,99220.09
2022-11-21T08:37:58.398Z,99226.06
2022-11-21T08:40:27.848Z,99226.72
2022-11-21T08:43:06.895Z,99223.28
2022-11-21T08:45:36.032Z,99222.72
2022-11-21T08:48:03.632Z,99215.19
2022-11-21T08:50:32.075Z,99227.03
2022-11-21T08:53:01.472Z,99225.81
2022-11-21T08:55:29.283Z,99224.19
2022-11-21T08:57:56.645Z,99219.09
2022-11-21T09:00:24.467Z,99216.63
2022-11-21T09:02:51.830Z,99215.53
2022-11-21T09:05:19.207Z,99218.75
2022-11-21T09:07:47.557Z,99217.56
2022-11-21T09:10:15.334Z,99230.78
2022-11-21T09:12:43.276Z,99227.38
2022-11-21T09:15:30.075Z,99225.50
2022-11-21T09:18:04.405Z,99225.63
2022-11-21T09:20:34.172Z,99219.00
2022-11-21T09:23:10.148Z,99216.50
2022-11-21T09:25:37.726Z,99214.03
2022-11-21T09:28:07.007Z,99210.34
2022-11-21T09:30:34.658Z,99212.59
2022-11-21T09:33:06.489Z,99209.84
2022-11-21T09:35:33.876Z,99211.72
2022-11-21T09:38:01.225Z,99210.09
2022-11-21T09:40:30.338Z,99209.84
2022-11-21T09:43:06.668Z,99209.63
2022-11-21T09:45:35.132Z,99213.53
2022-11-21T09:48:11.865Z,99222.34
2022-11-21T09:50:42.950Z,99221.88
2022-11-21T09:53:15.083Z,99215.13
2022-11-21T09:55:52.234Z,99213.53
2022-11-21T09:58:25.307Z,99212.75
2022-11-21T10:00:53.564Z,99206.69
2022-11-21T10:03:29.301Z,99209.31
2022-11-21T10:06:01.820Z,99208.50
2022-11-21T10:08:42.848Z,99204.06
2022-11-21T10:11:34.689Z,99203.50
2022-11-21T10:14:09.836Z,99201.59
2022-11-21T10:16:57.258Z,99206.00
2022-11-21T10:19:38.272Z,99194.19
2022-11-21T10:22:17.901Z,99186.66
2022-11-21T10:25:17.557Z,99187.59
2022-11-21T10:27:51.701Z,99181.69
2022-11-21T10:30:21.010Z,99166.34
2022-11-21T10:32:57.475Z,99171.59
2022-11-21T10:35:34.222Z,99164.69
2022-11-21T10:38:03.112Z,99167.31
2022-11-21T10:40:49.290Z,99151.78
2022-11-21T10:43:41.353Z,99152.66
2022-11-21T10:46:09.598Z,99149.22
2022-11-21T10:48:36.896Z,99153.53
2022-11-21T10:51:13.073Z,99148.34
2022-11-21T10:54:04.559Z,99144.91
2022-11-21T10:56:35.070Z,99144.03
2022-11-21T10:59:12.307Z,99137.97
2022-11-21T11:01:39.715Z,99144.03
2022-11-21T11:07:00.159Z,99143.19
2022-11-21T11:09:30.978Z,99153.53
2022-11-21T11:12:22.987Z,99149.22
2022-11-21T11:14:56.270Z,99147.50
2022-11-21T11:17:29.024Z,99137.97
2022-11-21T11:20:01.326Z,99138.81
2022-11-21T11:22:30.347Z,99138.75
2022-11-21T11:25:00.728Z,99133.56
2022-11-21T11:27:29.592Z,99134.41
2022-11-21T11:29:56.907Z,99124.87
2022-11-21T11:32:24.782Z,99131.78
2022-11-21T11:35:01.298Z,99129.19
2022-11-21T11:37:47.078Z,99123.94
2022-11-21T11:40:41.637Z,99121.22
2022-11-21T11:43:47.170Z,99118.66
2022-11-21T11:46:45.422Z,99111.72
2022-11-21T11:49:21.131Z,99109.22
2022-11-21T11:51:54.729Z,99106.59
2022-11-21T11:54:26.855Z,99101.16
2022-11-21T11:56:54.279Z,99105.62
2022-11-21T11:59:41.397Z,99097.00
2022-11-21T12:02:44.273Z,99089.19
2022-11-21T12:05:19.047Z,99088.34
2022-11-21T12:08:39.662Z,99082.12
2022-11-21T12:11:10.105Z,99072.31
2022-11-21T12:13:37.659Z,99070.66
2022-11-21T12:16:13.222Z,99074.06
2022-11-21T12:18:58.994Z,99069.84
2022-11-21T12:21:26.731Z,99068.91
2022-11-21T12:23:55.885Z,99071.41
2022-11-21T12:26:37.695Z,99063.59
2022-11-21T12:29:37.122Z,99067.81
2022-11-21T12:32:16.477Z,99067.62
2022-11-21T12:35:01.741Z,99057.91
2022-11-21T12:37:38.215Z,99055.34
2022-11-21T12:40:43.053Z,99058.88
2022-11-21T12:43:41.022Z,99054.59
2022-11-21T12:46:23.866Z,99049.59
2022-11-21T12:49:15.991Z,99046.97
2022-11-21T12:52:17.474Z,99039.19
2022-11-21T12:54:58.276Z,99048.94
2022-11-21T12:57:50.510Z,99048.97
2022-11-21T13:00:44.704Z,99052.38
2022-11-21T13:03:28.157Z,99062.13
2022-11-21T13:05:56.064Z,99055.09
2022-11-21T13:08:27.394Z,99063.00
2022-11-21T13:11:28.210Z,99057.00
2022-11-21T13:14:25.255Z,99066.44
2022-11-21T13:17:07.522Z,99061.94
2022-11-21T13:19:37.430Z,99057.69
2022-11-21T13:22:04.792Z,99060.44
2022-11-21T13:24:44.226Z,99064.81
2022-11-21T13:27:36.772Z,99064.97
2022-11-21T13:30:08.836Z,99066.69
2022-11-21T13:32:47.301Z,99071.13
2022-11-21T13:35:14.953Z,99074.44
2022-11-21T13:38:02.866Z,99077.00
2022-11-21T13:40:30.188Z,99074.50
2022-11-21T13:45:59.091Z,99074.56
2022-11-21T13:49:02.262Z,99075.31
2022-11-21T13:51:38.747Z,99073.66
2022-11-21T13:54:38.753Z,99075.44
2022-11-21T13:57:24.876Z,99076.22
2022-11-21T14:00:22.532Z,99070.22
2022-11-21T14:03:11.650Z,99073.72
2022-11-21T14:06:03.633Z,99079.00
2022-11-21T14:08:31.439Z,99077.22
2022-11-21T14:10:58.918Z,99079.00
2022-11-21T14:13:30.077Z,99082.44
2022-11-21T14:16:41.266Z,99078.16
2022-11-21T14:19:14.845Z,99077.09
2022-11-21T14:21:45.965Z,99074.66
2022-11-21T14:24:19.269Z,99079.66
2022-11-21T14:26:49.352Z,99075.47
2022-11-21T14:29:22.726Z,99072.06
2022-11-21T14:31:50.948Z,99081.59
2022-11-21T14:34:29.636Z,99081.69
2022-11-21T14:37:03.079Z,99085.16
2022-11-21T14:39:39.013Z,99083.41
2022-11-21T14:42:13.747Z,99082.56
2022-11-21T14:44:41.144Z,99089.44
2022-11-21T14:47:25.081Z,99094.63
2022-11-21T14:49:55.570Z,99081.66
2022-11-21T14:52:33.545Z,99085.09
2022-11-21T14:57:55.183Z,99092.06
2022-11-21T15:00:57.394Z,99090.50
2022-11-21T15:03:30.913Z,99090.38
2022-11-21T15:06:04.617Z,99094.72
2022-11-21T15:11:24.055Z,99091.28
2022-11-21T15:14:14.903Z,99093.06
2022-11-21T15:16:43.637Z,99095.63
2022-11-21T15:19:11.332Z,99092.97
2022-11-21T15:21:46.144Z,99093.00
2022-11-21T15:24:33.042Z,99105.97
2022-11-21T15:27:00.850Z,99112.81
2022-11-21T15:29:32.325Z,99117.97
2022-11-21T15:32:15.715Z,99113.75
2022-11-21T15:34:44.257Z,99118.94
2022-11-21T15:37:18.434Z,99130.22
2022-11-21T15:39:48.281Z,99131.94
2022-11-21T15:42:34.414Z,99123.31
2022-11-21T15:45:21.191Z,99124.13
2022-11-21T15:47:49.184Z,99119.84
2022-11-21T15:50:17.262Z,99137.13
2022-11-21T15:52:46.407Z,99137.13
2022-11-21T15:55:25.948Z,99131.03
2022-11-21T15:57:53.518Z,99123.25
2022-11-21T16:00:20.860Z,99126.69
2022-11-21T16:02:48.442Z,99121.59
2022-11-21T16:05:16.005Z,99120.66
2022-11-21T16:07:43.435Z,99116.22
2022-11-21T16:10:18.308Z,99106.66
2022-11-21T16:12:49.101Z,99099.72
2022-11-21T16:15:16.739Z,99096.97
2022-11-21T16:17:45.604Z,99077.19
2022-11-21T16:20:13.272Z,99077.19
2022-11-21T16:22:45.866Z,99091.91
2022-11-21T16:25:15.794Z,99091.12
2022-11-21T16:27:43.538Z,99098.09
2022-11-21T16:30:11.694Z,99088.59
2022-11-21T16:32:38.977Z,99084.38
2022-11-21T16:35:07.365Z,99086.03
2022-11-21T16:37:34.978Z,99092.19
2022-11-21T16:40:02.497Z,99089.56
2022-11-21T16:42:30.111Z,99090.41
2022-11-21T16:44:57.471Z,99082.62
2022-11-21T16:47:24.831Z,99082.69
2022-11-21T16:49:52.458Z,99080.91
2022-11-21T16:52:19.887Z,99088.69
2022-11-21T16:54:47.370Z,99086.13
2022-11-21T16:57:15.115Z,99093.03
2022-11-21T16:59:42.518Z,99100.84
2022-11-21T17:02:10.754Z,99102.59
2022-11-21T17:04:38.354Z,99109.50
2022-11-21T17:07:06.061Z,99106.03
2022-11-21T17:09:33.572Z,99109.50
2022-11-21T17:12:01.187Z,99111.25
2022-11-21T17:14:28.892Z,99117.28
2022-11-21T17:16:56.521Z,99113.81
2022-11-21T17:19:24.084Z,99119.88
2022-11-21T17:21:52.483Z,99119.88
2022-11-21T17:24:19.839Z,99109.50
2022-11-21T17:26:47.419Z,99103.44
2022-11-21T17:29:14.872Z,99106.06
2022-11-21T17:31:42.662Z,99105.22
2022-11-21T17:34:10.341Z,99107.78
2022-11-21T17:36:37.862Z,99116.41
2022-11-21T17:39:05.165Z,99114.69
2022-11-21T17:41:32.774Z,99123.34
2022-11-21T17:44:01.118Z,99132.84
2022-11-21T17:46:28.766Z,99139.75
2022-11-21T17:48:58.967Z,99134.56
2022-11-21T17:51:29.289Z,99134.56
2022-11-21T17:53:56.925Z,99125.03
2022-11-21T17:56:26.538Z,99117.31
2022-11-21T17:58:54.173Z,99119.88
2022-11-21T18:01:22.329Z,99128.50
2022-11-21T18:04:14.682Z,99122.47
2022-11-21T18:06:42.548Z,99128.50
2022-11-21T18:09:11.254Z,99136.28
2022-11-21T18:11:40.555Z,99137.13
2022-11-21T18:14:10.304Z,99130.25
2022-11-21T18:16:39.435Z,99129.38
2022-11-21T18:19:09.199Z,99125.91
2022-11-21T18:21:36.606Z,99132.81
2022-11-21T18:24:04.276Z,99126.78
2022-11-21T18:26:33.885Z,99124.19
2022-11-21T18:29:28.673Z,99117.28
2022-11-21T18:31:50.201Z,99116.41
2022-11-21T18:34:17.582Z,99116.44
2022-11-21T18:36:45.229Z,99116.41
2022-11-21T18:39:15.281Z,99117.28
2022-11-21T18:41:43.139Z,99112.97
2022-11-21T18:44:11.382Z,99120.75
2022-11-21T18:46:40.454Z,99114.69
2022-11-21T18:49:08.586Z,99113.84
2022-11-21T18:51:36.886Z,99108.66
2022-11-21T18:54:08.372Z,99108.66
2022-11-21T18:56:38.261Z,99106.94
2022-11-21T18:59:06.461Z,99109.50
2022-11-21T19:01:36.026Z,99101.75
2022-11-21T19:04:03.613Z,99103.50
2022-11-21T19:06:31.317Z,99100.88
2022-11-21T19:08:58.900Z,99100.88
2022-11-21T19:11:28.515Z,99106.94
2022-11-21T19:13:57.172Z,99105.19
2022-11-21T19:16:25.847Z,99104.31
2022-11-21T19:21:43.832Z,99109.50
2022-11-21T19:24:15.510Z,99106.91
2022-11-21T19:26:42.904Z,99100.91
2022-11-21T19:29:11.100Z,99114.69
2022-11-21T19:31:44.526Z,99103.47
2022-11-21T19:34:14.112Z,99111.25
2022-11-21T19:36:42.375Z,99113.84
2022-11-21T19:39:09.754Z,99110.38
2022-11-21T19:41:37.644Z,99111.25
2022-11-21T19:44:05.020Z,99109.53
2022-11-21T19:46:34.383Z,99114.69
2022-11-21T19:49:01.953Z,99112.97
2022-11-21T19:51:35.015Z,99109.53
2022-11-21T19:54:04.436Z,99113.81
2022-11-21T19:56:32.097Z,99114.69
2022-11-21T19:58:59.396Z,99112.94
2022-11-21T20:01:29.056Z,99114.72
2022-11-21T20:03:59.621Z,99112.97
2022-11-21T20:06:29.285Z,99118.13
2022-11-21T20:09:01.646Z,99113.81
2022-11-21T20:11:30.166Z,99119.88
2022-11-21T20:13:58.439Z,99119.00
2022-11-21T20:16:31.074Z,99126.78
2022-11-21T20:19:00.782Z,99126.75
2022-11-21T20:21:28.875Z,99122.44
2022-11-21T20:23:56.693Z,99131.94
2022-11-21T20:26:25.181Z,99128.50
2022-11-21T20:28:53.326Z,99124.22
2022-11-21T20:31:22.882Z,99131.09
2022-11-21T20:33:52.481Z,99112.13
2022-11-21T20:36:21.780Z,99110.38
2022-11-21T20:38:53.780Z,99109.53
2022-11-21T20:41:23.065Z,99120.75
2022-11-21T20:46:43.020Z,99117.28
2022-11-21T20:49:10.811Z,99112.97
2022-11-21T20:54:26.839Z,99108.63
2022-11-21T20:56:54.324Z,99111.22
2022-11-21T20:59:21.636Z,99106.00
2022-11-21T21:01:49.258Z,99103.44
2022-11-21T21:04:17.012Z,99102.56
2022-11-21T21:06:44.317Z,99103.47
2022-11-21T21:09:11.945Z,99095.69
2022-11-21T21:11:54.651Z,99085.31
2022-11-21T21:14:22.543Z,99085.31
2022-11-21T21:16:50.343Z,99082.75
2022-11-21T21:19:18.048Z,99081.84
2022-11-21T21:21:45.660Z,99075.81
2022-11-21T21:24:13.351Z,99074.97
2022-11-21T21:26:43.791Z,99070.66
2022-11-21T21:29:13.655Z,99074.94
2022-11-21T21:31:46.810Z,99068.09
2022-11-21T21:34:17.851Z,99065.50
2022-11-21T21:36:45.286Z,99070.66
2022-11-21T21:39:12.597Z,99074.97
2022-11-21T21:41:44.203Z,99067.22
2022-11-21T21:44:11.919Z,99063.78
2022-11-21T21:46:39.545Z,99069.84
2022-11-21T21:49:06.869Z,99060.34
2022-11-21T21:51:35.935Z,99062.06
2022-11-21T21:54:04.095Z,99062.94
2022-11-21T21:56:31.487Z,99062.06
2022-11-21T21:58:59.010Z,99061.19
2022-11-21T22:01:31.069Z,99060.34
2022-11-21T22:04:03.689Z,99061.19
2022-11-21T22:06:33.368Z,99068.94
2022-11-21T22:09:01.786Z,99072.38
2022-11-21T22:11:31.396Z,99069.78
2022-11-21T22:14:03.694Z,99076.69
2022-11-21T22:16:31.860Z,99073.28
2022-11-21T22:18:59.171Z,99067.22
2022-11-21T22:21:34.436Z,99071.53
2022-11-21T22:26:51.316Z,99072.44
2022-11-21T22:29:18.942Z,99079.28
2022-11-21T22:31:46.309Z,99074.16
2022-11-21T22:34:14.347Z,99079.31
2022-11-21T22:36:42.049Z,99075.81
2022-11-21T22:39:09.605Z,99075.03
2022-11-21T22:41:37.043Z,99082.78
2022-11-21T22:44:04.822Z,99076.72
2022-11-21T22:46:32.418Z,99074.97
2022-11-21T22:48:59.759Z,99078.44
2022-11-21T22:51:31.329Z,99069.78
2022-11-21T22:53:58.698Z,99068.09
2022-11-21T22:56:27.158Z,99075.00
2022-11-21T22:58:54.887Z,99062.94
2022-11-21T23:01:24.485Z,99062.94
2022-11-21T23:03:52.518Z,99071.56
2022-11-21T23:06:23.525Z,99064.66
2022-11-21T23:08:52.325Z,99070.69
2022-11-21T23:11:26.166Z,99066.31
2022-11-21T23:13:55.420Z,99056.00
2022-11-21T23:16:23.184Z,99040.50
2022-11-21T23:18:54.482Z,99037.03
2022-11-21T23:21:22.324Z,99037.03
2022-11-21T23:23:50.060Z,99038.78
2022-11-21T23:26:17.456Z,99036.19
2022-11-21T23:28:44.964Z,99038.78
2022-11-21T23:31:12.557Z,99038.78
2022-11-21T23:33:39.968Z,99040.50
2022-11-21T23:36:07.465Z,99027.56
2022-11-21T23:38:35.099Z,99026.72
2022-11-21T23:41:02.450Z,99024.09
2022-11-21T23:43:29.730Z,99028.44
2022-11-21T23:45:57.322Z,99024.13
2022-11-21T23:48:24.737Z,99024.94
2022-11-21T23:50:52.364Z,99012.03
2022-11-21T23:53:20.659Z,99023.25
2022-11-21T23:55:48.452Z,99020.66
2022-11-21T23:58:16.368Z,99005.16
